首页
METAR-TAF:

METAR-TAF

机场 :

卡迪夫機場

加的夫, 威尔士

纬度: 51-24N, 经度: 003-21W, 海拔: 67米

当前天气观测

该预报发布于34分钟前的21:50 UTC
风速12节,风向东北
温度 5°C
湿度 52%
气压 1041 hPa
能见度10公里或以上
多云层高于4900英尺

METAR: EGFF 292150Z AUTO 05012KT 9999 BKN049 05/M04 Q1041

时间: 23:24 (22:24 UTC)

预报

该预报发布于5小时和23分钟前的17:01 UTC
预报有效从29日的 18点(UTC)到 30日的 18点(UTC)
风速18节,风向东北,有时为28节阵风
能见度10公里或以上
散云层高于3500英尺
成为
从 29日的 18点(UTC)到 29日的 21点(UTC)
风速8节,风向北转东北
成为
从 30日的 09点(UTC)到 30日的 12点(UTC)
风速16节,风向北转东北,有时为26节阵风
几率 30% :
短暂存在
从 30日的 09点(UTC)到 30日的 18点(UTC)
能見度: 6000
多云层高于1200英尺
阵雨

TAF: EGFF 291701Z 2918/3018 05018G28KT 9999 SCT035 BECMG 2918/2921 03008KT BECMG 3009/3012 03016G26KT PROB30 TEMPO 3009/3018 6000 SHRA BKN012

超过4000个机场的气象观测和天气预报(METAR&TAF报告)。

可查询的气象台以黄色和红色小点在地图上表示。

将鼠标移到小点上方,可查看气象台名称。

然后点击查看天气观测和预报。

如需切换地图:点击带黑十字的绿色按钮放大地图;点击带横线的绿色按钮缩小地图;或者点击绿色箭头查看邻近地区的地图。


METAR-TAF: